This is the latest recevied weather packets stored in our database for station/object W8KVG. If no packets are shown the sender has not sent any weather packets the latest 1 day(s).
| Time | Temp. | Humidity | Pressure | Rain* | Wind** | Luminosity | Snow |
|---|---|---|---|---|---|---|---|
| 1778042115 | 15° C | 93% | 1007.7 hPa | 1.27 mm | - | 0 W/m² | - |
| 1778041814 | 15° C | 93% | 1007.7 hPa | 0.51 mm | - | 0 W/m² | - |
| 1778041210 | 15° C | 92% | 1007.6 hPa | 0 mm | - | 0 W/m² | - |
| 1778040605 | 15° C | 90% | 1007.3 hPa | 0 mm | - | 0 W/m² | - |
| 1778040303 | 15.56° C | 90% | 1007.6 hPa | 0 mm | - | 0 W/m² | - |
| 1778039998 | 15.56° C | 89% | 1007.5 hPa | 0 mm | - | 0 W/m² | - |
| 1778039695 | 15.56° C | 89% | 1007.6 hPa | 0 mm | - | 0 W/m² | - |
| 1778039392 | 15.56° C | 89% | 1007.3 hPa | 0 mm | - | 0 W/m² | - |
| 1778039089 | 15.56° C | 89% | 1007.3 hPa | 0 mm | - | 0 W/m² | - |
| 1778038786 | 15.56° C | 89% | 1007.4 hPa | 0 mm | - | 0 W/m² | - |
| 1778038484 | 15.56° C | 89% | 1007.1 hPa | 0 mm | - | 0 W/m² | - |
| 1778038180 | 15.56° C | 89% | 1007.3 hPa | 0 mm | - | 0 W/m² | - |
| 1778037878 | 15.56° C | 88% | 1007.3 hPa | 0 mm | - | 0 W/m² | - |
| 1778037574 | 15.56° C | 88% | 1007.1 hPa | 0 mm | - | 0 W/m² | - |
| 1778037271 | 15.56° C | 87% | 1007.2 hPa | 0 mm | - | 0 W/m² | - |
| 1778036969 | 15.56° C | 87% | 1007.2 hPa | 0 mm | - | 0 W/m² | - |
| 1778036667 | 15.56° C | 87% | 1007.2 hPa | 0 mm | - | 0 W/m² | - |
| 1778035757 | 16.11° C | 86% | 1007.1 hPa | 0 mm | - | 0 W/m² | - |
| 1778035454 | 16.11° C | 85% | 1007.4 hPa | 0 mm | - | 0 W/m² | - |
| 1778035150 | 16.11° C | 85% | 1007.6 hPa | 0 mm | - | 0 W/m² | - |
| 1778034847 | 16.11° C | 84% | 1007.5 hPa | 0 mm | - | 0 W/m² | - |
| 1778033939 | 16.67° C | 80% | 1007.4 hPa | 0 mm | - | 0 W/m² | - |
| 1778033636 | 17.78° C | 76% | 1007.4 hPa | 0 mm | - | 0 W/m² | - |
| 1778033031 | 18.33° C | 70% | 1007 hPa | 0 mm | - | 0 W/m² | - |
| 1778032728 | 18.89° C | 65% | 1006.8 hPa | 0 mm | - | 0 W/m² | - |
* Rain latest hour (hover to see other rain measurements)
** Current wind speed in m/s (hover to see current wind gust speed)